sensor_id;sensor_type;location;lat;lon;timestamp;pressure;altitude;pressure_sealevel;temperature;humidity
70445;BME280;57902;49.638;11.070;2023-03-15T00:01:38;97675.25;;;2.16;100.00
70445;BME280;57902;49.638;11.070;2023-03-15T00:04:05;97677.75;;;2.24;100.00
70445;BME280;57902;49.638;11.070;2023-03-15T00:06:32;97660.84;;;2.12;100.00
70445;BME280;57902;49.638;11.070;2023-03-15T00:09:00;97654.06;;;2.13;100.00
70445;BME280;57902;49.638;11.070;2023-03-15T00:11:28;97654.16;;;1.99;100.00
70445;BME280;57902;49.638;11.070;2023-03-15T00:13:56;97659.25;;;1.96;100.00
70445;BME280;57902;49.638;11.070;2023-03-15T00:16:23;97655.88;;;1.90;100.00
70445;BME280;57902;49.638;11.070;2023-03-15T00:18:53;97659.25;;;1.99;100.00
70445;BME280;57902;49.638;11.070;2023-03-15T00:21:20;97662.66;;;1.95;100.00
70445;BME280;57902;49.638;11.070;2023-03-15T00:23:46;97681.25;;;2.01;100.00
70445;BME280;57902;49.638;11.070;2023-03-15T00:26:13;97683.78;;;2.07;100.00
70445;BME280;57902;49.638;11.070;2023-03-15T00:28:40;97688.00;;;2.07;100.00
70445;BME280;57902;49.638;11.070;2023-03-15T00:31:12;97690.56;;;2.02;100.00
70445;BME280;57902;49.638;11.070;2023-03-15T00:33:40;97688.00;;;2.10;100.00
70445;BME280;57902;49.638;11.070;2023-03-15T00:36:08;97685.47;;;2.10;100.00
70445;BME280;57902;49.638;11.070;2023-03-15T00:38:36;97701.59;;;1.97;100.00
70445;BME280;57902;49.638;11.070;2023-03-15T00:41:12;97710.91;;;2.02;100.00
70445;BME280;57902;49.638;11.070;2023-03-15T00:43:38;97710.91;;;2.01;100.00
70445;BME280;57902;49.638;11.070;2023-03-15T00:46:06;97709.22;;;2.03;100.00
70445;BME280;57902;49.638;11.070;2023-03-15T00:48:33;97714.28;;;2.07;100.00
70445;BME280;57902;49.638;11.070;2023-03-15T00:51:22;97725.31;;;2.02;100.00
70445;BME280;57902;49.638;11.070;2023-03-15T00:53:51;97739.69;;;2.09;100.00
70445;BME280;57902;49.638;11.070;2023-03-15T00:56:21;97742.25;;;2.09;100.00
70445;BME280;57902;49.638;11.070;2023-03-15T00:58:48;97731.19;;;2.08;100.00
70445;BME280;57902;49.638;11.070;2023-03-15T01:01:20;97743.03;;;2.16;100.00
70445;BME280;57902;49.638;11.070;2023-03-15T01:03:47;97737.94;;;2.22;100.00
70445;BME280;57902;49.638;11.070;2023-03-15T01:06:19;97744.69;;;2.23;100.00
70445;BME280;57902;49.638;11.070;2023-03-15T01:08:46;97749.84;;;2.15;100.00
70445;BME280;57902;49.638;11.070;2023-03-15T01:11:19;97757.44;;;2.21;100.00
70445;BME280;57902;49.638;11.070;2023-03-15T01:13:46;97758.28;;;2.23;100.00
70445;BME280;57902;49.638;11.070;2023-03-15T01:16:13;97759.06;;;2.32;100.00
70445;BME280;57902;49.638;11.070;2023-03-15T01:18:40;97769.25;;;2.33;100.00
70445;BME280;57902;49.638;11.070;2023-03-15T01:21:11;97760.81;;;2.26;100.00
70445;BME280;57902;49.638;11.070;2023-03-15T01:23:39;97765.91;;;2.26;100.00
70445;BME280;57902;49.638;11.070;2023-03-15T01:26:11;97769.31;;;2.21;100.00
70445;BME280;57902;49.638;11.070;2023-03-15T01:28:38;97769.34;;;2.15;100.00
70445;BME280;57902;49.638;11.070;2023-03-15T01:31:05;97771.06;;;2.05;100.00
70445;BME280;57902;49.638;11.070;2023-03-15T01:33:32;97773.63;;;2.00;100.00
70445;BME280;57902;49.638;11.070;2023-03-15T01:36:05;97785.47;;;2.06;100.00
70445;BME280;57902;49.638;11.070;2023-03-15T01:38:33;97781.25;;;1.97;100.00
70445;BME280;57902;49.638;11.070;2023-03-15T01:40:59;97788.03;;;1.98;100.00
70445;BME280;57902;49.638;11.070;2023-03-15T01:43:28;97794.81;;;1.98;100.00
70445;BME280;57902;49.638;11.070;2023-03-15T01:48:42;97795.66;;;1.98;100.00
70445;BME280;57902;49.638;11.070;2023-03-15T01:51:19;97796.53;;;1.88;100.00
70445;BME280;57902;49.638;11.070;2023-03-15T01:53:53;97799.09;;;1.75;100.00
70445;BME280;57902;49.638;11.070;2023-03-15T01:56:22;97800.81;;;1.75;100.00
70445;BME280;57902;49.638;11.070;2023-03-15T01:58:50;97802.50;;;1.74;100.00
70445;BME280;57902;49.638;11.070;2023-03-15T02:01:18;97806.72;;;1.77;100.00
70445;BME280;57902;49.638;11.070;2023-03-15T02:03:49;97810.94;;;1.87;100.00
70445;BME280;57902;49.638;11.070;2023-03-15T02:06:18;97817.75;;;1.82;100.00
70445;BME280;57902;49.638;11.070;2023-03-15T02:08:49;97815.22;;;1.82;100.00
70445;BME280;57902;49.638;11.070;2023-03-15T02:11:18;97825.34;;;1.78;100.00
70445;BME280;57902;49.638;11.070;2023-03-15T02:13:47;97827.06;;;1.79;100.00
70445;BME280;57902;49.638;11.070;2023-03-15T02:16:15;97830.47;;;1.79;100.00
70445;BME280;57902;49.638;11.070;2023-03-15T02:18:42;97832.97;;;1.85;100.00
70445;BME280;57902;49.638;11.070;2023-03-15T02:21:24;97830.44;;;1.82;100.00
70445;BME280;57902;49.638;11.070;2023-03-15T02:24:11;97836.34;;;1.92;100.00
70445;BME280;57902;49.638;11.070;2023-03-15T02:26:48;97831.25;;;1.92;100.00
70445;BME280;57902;49.638;11.070;2023-03-15T02:29:16;97840.59;;;1.87;100.00
70445;BME280;57902;49.638;11.070;2023-03-15T02:31:43;97843.16;;;1.87;100.00
70445;BME280;57902;49.638;11.070;2023-03-15T02:34:09;97846.53;;;1.84;100.00
70445;BME280;57902;49.638;11.070;2023-03-15T02:36:36;97844.00;;;1.84;100.00
70445;BME280;57902;49.638;11.070;2023-03-15T02:39:13;97850.78;;;1.76;100.00
70445;BME280;57902;49.638;11.070;2023-03-15T02:41:42;97856.72;;;1.72;100.00
70445;BME280;57902;49.638;11.070;2023-03-15T02:44:15;97860.94;;;1.76;100.00
70445;BME280;57902;49.638;11.070;2023-03-15T02:46:45;97866.03;;;1.79;100.00
70445;BME280;57902;49.638;11.070;2023-03-15T02:49:14;97876.19;;;1.74;100.00
70445;BME280;57902;49.638;11.070;2023-03-15T02:51:42;97881.28;;;1.68;100.00
70445;BME280;57902;49.638;11.070;2023-03-15T02:54:08;97878.75;;;1.51;100.00
70445;BME280;57902;49.638;11.070;2023-03-15T02:56:35;97880.44;;;1.48;100.00
70445;BME280;57902;49.638;11.070;2023-03-15T02:59:01;97889.75;;;1.47;100.00
70445;BME280;57902;49.638;11.070;2023-03-15T03:01:28;97902.47;;;1.56;100.00
70445;BME280;57902;49.638;11.070;2023-03-15T03:03:54;97906.69;;;1.61;100.00
70445;BME280;57902;49.638;11.070;2023-03-15T03:06:21;97916.03;;;1.60;100.00
70445;BME280;57902;49.638;11.070;2023-03-15T03:08:48;97924.47;;;1.57;100.00
70445;BME280;57902;49.638;11.070;2023-03-15T03:11:14;97924.47;;;1.57;100.00
70445;BME280;57902;49.638;11.070;2023-03-15T03:13:41;97929.53;;;1.48;100.00
70445;BME280;57902;49.638;11.070;2023-03-15T03:16:08;97934.63;;;1.40;100.00
70445;BME280;57902;49.638;11.070;2023-03-15T03:18:35;97939.69;;;1.37;100.00
70445;BME280;57902;49.638;11.070;2023-03-15T03:21:04;97946.44;;;1.28;100.00
70445;BME280;57902;49.638;11.070;2023-03-15T03:23:32;97949.84;;;1.25;100.00
70445;BME280;57902;49.638;11.070;2023-03-15T03:26:00;97960.00;;;1.25;100.00
70445;BME280;57902;49.638;11.070;2023-03-15T03:28:28;97962.53;;;1.20;100.00
70445;BME280;57902;49.638;11.070;2023-03-15T03:30:55;97969.25;;;1.11;100.00
70445;BME280;57902;49.638;11.070;2023-03-15T03:33:23;97981.13;;;1.13;100.00
70445;BME280;57902;49.638;11.070;2023-03-15T03:35:50;97974.34;;;1.15;100.00
70445;BME280;57902;49.638;11.070;2023-03-15T03:38:16;97988.69;;;1.02;100.00
70445;BME280;57902;49.638;11.070;2023-03-15T03:40:44;97992.91;;;0.97;100.00
70445;BME280;57902;49.638;11.070;2023-03-15T03:43:11;98005.59;;;0.97;100.00
70445;BME280;57902;49.638;11.070;2023-03-15T03:45:37;98001.38;;;1.01;100.00
70445;BME280;57902;49.638;11.070;2023-03-15T03:48:04;98007.25;;;0.91;100.00
70445;BME280;57902;49.638;11.070;2023-03-15T03:50:30;98013.94;;;0.75;100.00
70445;BME280;57902;49.638;11.070;2023-03-15T03:52:57;98017.34;;;0.74;100.00
70445;BME280;57902;49.638;11.070;2023-03-15T03:55:23;98016.47;;;0.76;100.00
70445;BME280;57902;49.638;11.070;2023-03-15T03:57:50;98015.63;;;0.71;100.00
70445;BME280;57902;49.638;11.070;2023-03-15T04:00:18;98025.75;;;0.68;100.00
70445;BME280;57902;49.638;11.070;2023-03-15T04:02:45;98022.34;;;0.64;100.00
70445;BME280;57902;49.638;11.070;2023-03-15T04:05:12;98029.94;;;0.61;100.00
70445;BME280;57902;49.638;11.070;2023-03-15T04:07:38;98029.91;;;0.60;100.00
70445;BME280;57902;49.638;11.070;2023-03-15T04:10:05;98031.63;;;0.62;100.00
70445;BME280;57902;49.638;11.070;2023-03-15T04:12:32;98041.75;;;0.55;100.00
70445;BME280;57902;49.638;11.070;2023-03-15T04:14:58;98040.03;;;0.54;100.00
70445;BME280;57902;49.638;11.070;2023-03-15T04:17:24;98040.84;;;0.51;100.00
70445;BME280;57902;49.638;11.070;2023-03-15T04:19:51;98043.38;;;0.46;100.00
70445;BME280;57902;49.638;11.070;2023-03-15T04:22:18;98046.72;;;0.42;100.00
70445;BME280;57902;49.638;11.070;2023-03-15T04:24:44;98052.59;;;0.38;100.00
70445;BME280;57902;49.638;11.070;2023-03-15T04:27:11;98059.34;;;0.36;100.00
70445;BME280;57902;49.638;11.070;2023-03-15T04:29:41;98057.63;;;0.33;100.00
70445;BME280;57902;49.638;11.070;2023-03-15T04:32:09;98062.69;;;0.30;100.00
70445;BME280;57902;49.638;11.070;2023-03-15T04:34:35;98077.09;;;0.33;100.00
70445;BME280;57902;49.638;11.070;2023-03-15T04:37:05;98082.94;;;0.27;100.00
70445;BME280;57902;49.638;11.070;2023-03-15T04:39:31;98088.03;;;0.30;100.00
70445;BME280;57902;49.638;11.070;2023-03-15T04:41:58;98090.56;;;0.29;100.00
70445;BME280;57902;49.638;11.070;2023-03-15T04:44:24;98093.91;;;0.25;100.00
70445;BME280;57902;49.638;11.070;2023-03-15T04:46:53;98096.41;;;0.20;100.00
70445;BME280;57902;49.638;11.070;2023-03-15T04:49:20;98100.63;;;0.20;100.00
70445;BME280;57902;49.638;11.070;2023-03-15T04:51:47;98096.44;;;0.23;100.00
70445;BME280;57902;49.638;11.070;2023-03-15T04:54:13;98109.97;;;0.22;100.00
70445;BME280;57902;49.638;11.070;2023-03-15T04:56:40;98097.19;;;0.14;100.00
70445;BME280;57902;49.638;11.070;2023-03-15T04:59:07;98103.13;;;0.15;100.00
70445;BME280;57902;49.638;11.070;2023-03-15T05:01:34;98114.13;;;0.15;100.00
70445;BME280;57902;49.638;11.070;2023-03-15T05:04:00;98116.66;;;0.17;100.00
70445;BME280;57902;49.638;11.070;2023-03-15T05:06:27;98118.34;;;0.16;100.00
70445;BME280;57902;49.638;11.070;2023-03-15T05:08:54;98112.41;;;0.14;100.00
70445;BME280;57902;49.638;11.070;2023-03-15T05:11:21;98118.25;;;0.06;100.00
70445;BME280;57902;49.638;11.070;2023-03-15T05:13:47;98130.94;;;0.07;100.00
70445;BME280;57902;49.638;11.070;2023-03-15T05:16:14;98130.06;;;0.04;100.00
70445;BME280;57902;49.638;11.070;2023-03-15T05:18:40;98124.13;;;0.00;100.00
70445;BME280;57902;49.638;11.070;2023-03-15T05:21:07;98138.41;;;-0.05;100.00
70445;BME280;57902;49.638;11.070;2023-03-15T05:23:33;98147.75;;;-0.01;100.00
70445;BME280;57902;49.638;11.070;2023-03-15T05:26:00;98148.59;;;0.01;100.00
70445;BME280;57902;49.638;11.070;2023-03-15T05:28:26;98152.75;;;-0.09;100.00
70445;BME280;57902;49.638;11.070;2023-03-15T05:30:53;98151.06;;;-0.07;100.00
70445;BME280;57902;49.638;11.070;2023-03-15T05:33:20;98163.69;;;-0.13;100.00
70445;BME280;57902;49.638;11.070;2023-03-15T05:35:47;98157.72;;;-0.16;100.00
70445;BME280;57902;49.638;11.070;2023-03-15T05:38:14;98161.94;;;-0.19;100.00
70445;BME280;57902;49.638;11.070;2023-03-15T05:40:42;98160.28;;;-0.13;100.00
70445;BME280;57902;49.638;11.070;2023-03-15T05:43:09;98167.91;;;-0.10;100.00
70445;BME280;57902;49.638;11.070;2023-03-15T05:45:36;98179.75;;;-0.09;100.00
70445;BME280;57902;49.638;11.070;2023-03-15T05:48:03;98176.44;;;-0.05;100.00
70445;BME280;57902;49.638;11.070;2023-03-15T05:50:31;98186.63;;;0.01;100.00
70445;BME280;57902;49.638;11.070;2023-03-15T05:52:57;98186.63;;;0.01;100.00
70445;BME280;57902;49.638;11.070;2023-03-15T05:55:25;98192.59;;;0.05;100.00
70445;BME280;57902;49.638;11.070;2023-03-15T05:57:51;98196.81;;;0.07;100.00
70445;BME280;57902;49.638;11.070;2023-03-15T06:00:18;98198.53;;;0.08;100.00
70445;BME280;57902;49.638;11.070;2023-03-15T06:02:45;98203.75;;;0.21;100.00
70445;BME280;57902;49.638;11.070;2023-03-15T06:05:12;98209.72;;;0.29;100.00
70445;BME280;57902;49.638;11.070;2023-03-15T06:07:38;98205.56;;;0.34;100.00
70445;BME280;57902;49.638;11.070;2023-03-15T06:10:07;98212.34;;;0.38;100.00
70445;BME280;57902;49.638;11.070;2023-03-15T06:12:34;98198.91;;;0.48;100.00
70445;BME280;57902;49.638;11.070;2023-03-15T06:15:01;98215.09;;;0.60;100.00
70445;BME280;57902;49.638;11.070;2023-03-15T06:17:27;98211.03;;;0.77;100.00
70445;BME280;57902;49.638;11.070;2023-03-15T06:19:54;98212.03;;;0.98;100.00
70445;BME280;57902;49.638;11.070;2023-03-15T06:22:20;98208.88;;;1.28;100.00
70445;BME280;57902;49.638;11.070;2023-03-15T06:24:49;98209.97;;;1.78;100.00
70445;BME280;57902;49.638;11.070;2023-03-15T06:27:18;98218.63;;;2.25;100.00
70445;BME280;57902;49.638;11.070;2023-03-15T06:29:48;98219.53;;;2.72;100.00
70445;BME280;57902;49.638;11.070;2023-03-15T06:32:16;98211.00;;;3.33;98.56
70445;BME280;57902;49.638;11.070;2023-03-15T06:34:44;98222.00;;;3.63;93.45
70445;BME280;57902;49.638;11.070;2023-03-15T06:37:14;98231.19;;;4.07;89.57
70445;BME280;57902;49.638;11.070;2023-03-15T06:40:05;98233.53;;;4.46;89.47
70445;BME280;57902;49.638;11.070;2023-03-15T06:42:37;98233.25;;;4.86;84.80
70445;BME280;57902;49.638;11.070;2023-03-15T06:45:05;98236.25;;;5.40;82.64
70445;BME280;57902;49.638;11.070;2023-03-15T06:47:31;98237.63;;;5.71;80.57
70445;BME280;57902;49.638;11.070;2023-03-15T06:49:58;98231.56;;;5.79;80.02
70445;BME280;57902;49.638;11.070;2023-03-15T06:52:25;98223.25;;;5.59;78.26
70445;BME280;57902;49.638;11.070;2023-03-15T06:54:51;98221.50;;;6.37;76.75
70445;BME280;57902;49.638;11.070;2023-03-15T06:57:18;98226.53;;;6.43;77.97
70445;BME280;57902;49.638;11.070;2023-03-15T06:59:44;98224.25;;;6.82;73.73
70445;BME280;57902;49.638;11.070;2023-03-15T07:02:13;98223.72;;;7.16;73.06
70445;BME280;57902;49.638;11.070;2023-03-15T07:04:40;98232.47;;;7.53;68.55
70445;BME280;57902;49.638;11.070;2023-03-15T07:07:06;98225.69;;;7.96;66.44
70445;BME280;57902;49.638;11.070;2023-03-15T07:09:33;98234.50;;;8.24;68.52
70445;BME280;57902;49.638;11.070;2023-03-15T07:11:59;98231.50;;;8.04;65.86
70445;BME280;57902;49.638;11.070;2023-03-15T07:14:26;98233.88;;;8.13;66.46
70445;BME280;57902;49.638;11.070;2023-03-15T07:16:52;98226.81;;;8.24;65.78
70445;BME280;57902;49.638;11.070;2023-03-15T07:19:19;98239.53;;;8.29;63.62
70445;BME280;57902;49.638;11.070;2023-03-15T07:21:45;98242.47;;;8.12;64.64
70445;BME280;57902;49.638;11.070;2023-03-15T07:24:12;98242.44;;;7.22;68.92
70445;BME280;57902;49.638;11.070;2023-03-15T07:26:38;98242.97;;;6.88;70.23
70445;BME280;57902;49.638;11.070;2023-03-15T07:29:05;98258.81;;;6.55;72.35
70445;BME280;57902;49.638;11.070;2023-03-15T07:31:31;98258.13;;;6.42;71.05
70445;BME280;57902;49.638;11.070;2023-03-15T07:33:57;98259.44;;;6.71;72.60
70445;BME280;57902;49.638;11.070;2023-03-15T07:36:24;98251.66;;;7.32;69.52
70445;BME280;57902;49.638;11.070;2023-03-15T07:38:50;98248.72;;;7.53;70.03
70445;BME280;57902;49.638;11.070;2023-03-15T07:41:17;98253.84;;;7.53;69.28
70445;BME280;57902;49.638;11.070;2023-03-15T07:43:45;98260.56;;;7.61;67.13
70445;BME280;57902;49.638;11.070;2023-03-15T07:46:11;98256.22;;;7.14;67.88
70445;BME280;57902;49.638;11.070;2023-03-15T07:48:38;98252.38;;;6.89;71.50
70445;BME280;57902;49.638;11.070;2023-03-15T07:51:04;98253.91;;;7.50;67.39
70445;BME280;57902;49.638;11.070;2023-03-15T07:53:31;98255.44;;;8.04;64.78
70445;BME280;57902;49.638;11.070;2023-03-15T07:55:57;98256.22;;;8.52;65.09
70445;BME280;57902;49.638;11.070;2023-03-15T07:58:24;98262.31;;;9.23;62.83
70445;BME280;57902;49.638;11.070;2023-03-15T08:00:53;98255.84;;;9.06;60.94
70445;BME280;57902;49.638;11.070;2023-03-15T08:03:20;98255.56;;;9.17;60.66
70445;BME280;57902;49.638;11.070;2023-03-15T08:05:46;98259.31;;;7.82;60.67
70445;BME280;57902;49.638;11.070;2023-03-15T08:08:13;98250.41;;;7.54;63.45
70445;BME280;57902;49.638;11.070;2023-03-15T08:10:40;98255.94;;;6.78;65.09
70445;BME280;57902;49.638;11.070;2023-03-15T08:13:07;98261.13;;;7.28;63.90
70445;BME280;57902;49.638;11.070;2023-03-15T08:15:33;98260.69;;;7.53;63.49
70445;BME280;57902;49.638;11.070;2023-03-15T08:17:59;98269.31;;;7.97;62.19
70445;BME280;57902;49.638;11.070;2023-03-15T08:20:26;98269.19;;;8.47;61.04
70445;BME280;57902;49.638;11.070;2023-03-15T08:22:55;98269.88;;;8.93;61.53
70445;BME280;57902;49.638;11.070;2023-03-15T08:25:22;98282.19;;;9.16;58.23
70445;BME280;57902;49.638;11.070;2023-03-15T08:27:50;98274.03;;;9.35;57.02
70445;BME280;57902;49.638;11.070;2023-03-15T08:30:17;98272.88;;;9.46;57.46
70445;BME280;57902;49.638;11.070;2023-03-15T08:32:45;98270.25;;;8.76;56.62
70445;BME280;57902;49.638;11.070;2023-03-15T08:35:14;98265.34;;;9.03;56.55
70445;BME280;57902;49.638;11.070;2023-03-15T08:37:41;98273.09;;;9.37;57.46
70445;BME280;57902;49.638;11.070;2023-03-15T08:40:17;98275.72;;;9.36;56.32
70445;BME280;57902;49.638;11.070;2023-03-15T08:42:54;98275.94;;;8.90;56.42
70445;BME280;57902;49.638;11.070;2023-03-15T08:45:23;98279.94;;;8.63;57.07
70445;BME280;57902;49.638;11.070;2023-03-15T08:47:59;98272.50;;;8.91;59.38
70445;BME280;57902;49.638;11.070;2023-03-15T08:50:27;98274.91;;;9.34;55.54
70445;BME280;57902;49.638;11.070;2023-03-15T08:52:53;98276.22;;;8.78;57.24
70445;BME280;57902;49.638;11.070;2023-03-15T08:55:20;98271.28;;;8.27;57.48
70445;BME280;57902;49.638;11.070;2023-03-15T08:57:47;98273.69;;;7.91;58.67
70445;BME280;57902;49.638;11.070;2023-03-15T09:00:14;98274.69;;;7.35;59.73
70445;BME280;57902;49.638;11.070;2023-03-15T09:02:49;98278.16;;;7.31;60.59
70445;BME280;57902;49.638;11.070;2023-03-15T09:05:17;98283.59;;;6.52;62.79
70445;BME280;57902;49.638;11.070;2023-03-15T09:07:44;98283.41;;;5.97;66.00
70445;BME280;57902;49.638;11.070;2023-03-15T09:10:13;98287.88;;;5.75;67.97
70445;BME280;57902;49.638;11.070;2023-03-15T09:12:41;98290.59;;;5.59;67.38
70445;BME280;57902;49.638;11.070;2023-03-15T09:15:10;98295.13;;;5.28;70.11
70445;BME280;57902;49.638;11.070;2023-03-15T09:17:38;98297.16;;;4.80;74.04
70445;BME280;57902;49.638;11.070;2023-03-15T09:20:09;98303.09;;;4.86;74.85
70445;BME280;57902;49.638;11.070;2023-03-15T09:22:50;98306.44;;;4.93;72.89
70445;BME280;57902;49.638;11.070;2023-03-15T09:25:18;98308.19;;;4.88;73.89
70445;BME280;57902;49.638;11.070;2023-03-15T09:27:49;98315.00;;;4.86;75.59
70445;BME280;57902;49.638;11.070;2023-03-15T09:30:16;98310.69;;;4.97;71.42
70445;BME280;57902;49.638;11.070;2023-03-15T09:32:43;98305.63;;;4.89;69.27
70445;BME280;57902;49.638;11.070;2023-03-15T09:35:16;98322.66;;;4.90;68.82
70445;BME280;57902;49.638;11.070;2023-03-15T09:37:43;98315.97;;;4.65;69.47
70445;BME280;57902;49.638;11.070;2023-03-15T09:40:23;98321.09;;;4.63;70.02
70445;BME280;57902;49.638;11.070;2023-03-15T09:48:17;98339.03;;;4.45;76.32
70445;BME280;57902;49.638;11.070;2023-03-15T09:50:48;98351.81;;;4.43;79.07
70445;BME280;57902;49.638;11.070;2023-03-15T09:53:22;98348.56;;;4.04;84.44
70445;BME280;57902;49.638;11.070;2023-03-15T09:55:50;98356.22;;;3.87;88.21
70445;BME280;57902;49.638;11.070;2023-03-15T09:58:25;98360.50;;;3.70;89.29
70445;BME280;57902;49.638;11.070;2023-03-15T10:01:10;98352.84;;;3.48;92.19
70445;BME280;57902;49.638;11.070;2023-03-15T10:03:48;98363.03;;;3.36;94.24
70445;BME280;57902;49.638;11.070;2023-03-15T10:06:28;98363.84;;;2.99;98.58
70445;BME280;57902;49.638;11.070;2023-03-15T10:08:57;98371.41;;;2.67;99.32
70445;BME280;57902;49.638;11.070;2023-03-15T10:11:41;98367.13;;;2.58;100.00
70445;BME280;57902;49.638;11.070;2023-03-15T10:14:23;98367.13;;;2.59;100.00
70445;BME280;57902;49.638;11.070;2023-03-15T10:16:53;98357.81;;;2.61;100.00
70445;BME280;57902;49.638;11.070;2023-03-15T10:19:39;98357.78;;;2.57;100.00
70445;BME280;57902;49.638;11.070;2023-03-15T10:22:26;98359.38;;;2.35;100.00
70445;BME280;57902;49.638;11.070;2023-03-15T10:27:37;98364.56;;;2.59;100.00
70445;BME280;57902;49.638;11.070;2023-03-15T10:30:34;98368.00;;;2.68;100.00
70445;BME280;57902;49.638;11.070;2023-03-15T10:36:07;98373.03;;;2.58;100.00
70445;BME280;57902;49.638;11.070;2023-03-15T10:38:37;98375.56;;;2.49;100.00
70445;BME280;57902;49.638;11.070;2023-03-15T10:41:06;98378.09;;;2.49;100.00
70445;BME280;57902;49.638;11.070;2023-03-15T10:43:34;98372.22;;;2.58;100.00
70445;BME280;57902;49.638;11.070;2023-03-15T10:46:22;98375.56;;;2.49;100.00
70445;BME280;57902;49.638;11.070;2023-03-15T10:48:58;98379.81;;;2.50;100.00
70445;BME280;57902;49.638;11.070;2023-03-15T10:51:29;98373.03;;;2.52;100.00
70445;BME280;57902;49.638;11.070;2023-03-15T10:54:21;98373.91;;;2.59;100.00
70445;BME280;57902;49.638;11.070;2023-03-15T10:57:05;98370.53;;;2.61;100.00
70445;BME280;57902;49.638;11.070;2023-03-15T10:59:58;98368.84;;;2.60;100.00
70445;BME280;57902;49.638;11.070;2023-03-15T11:02:31;98381.53;;;2.51;100.00
70445;BME280;57902;49.638;11.070;2023-03-15T11:07:34;98374.78;;;2.66;100.00
70445;BME280;57902;49.638;11.070;2023-03-15T11:10:04;98377.38;;;2.70;100.00
70445;BME280;57902;49.638;11.070;2023-03-15T11:12:32;98372.22;;;2.61;100.00
70445;BME280;57902;49.638;11.070;2023-03-15T11:15:05;98373.03;;;2.58;100.00
70445;BME280;57902;49.638;11.070;2023-03-15T11:17:40;98379.03;;;2.63;100.00
70445;BME280;57902;49.638;11.070;2023-03-15T11:20:30;98373.09;;;2.65;100.00
70445;BME280;57902;49.638;11.070;2023-03-15T11:22:58;98375.66;;;2.78;100.00
70445;BME280;57902;49.638;11.070;2023-03-15T11:25:28;98370.56;;;2.71;100.00
70445;BME280;57902;49.638;11.070;2023-03-15T11:27:59;98373.13;;;2.74;100.00
70445;BME280;57902;49.638;11.070;2023-03-15T11:30:28;98373.94;;;2.70;100.00
70445;BME280;57902;49.638;11.070;2023-03-15T11:33:05;98366.31;;;2.67;100.00
70445;BME280;57902;49.638;11.070;2023-03-15T11:35:37;98373.97;;;2.76;100.00
70445;BME280;57902;49.638;11.070;2023-03-15T11:38:27;98373.13;;;2.86;100.00
70445;BME280;57902;49.638;11.070;2023-03-15T11:40:55;98363.00;;;2.98;100.00
70445;BME280;57902;49.638;11.070;2023-03-15T11:43:27;98373.19;;;2.98;100.00
70445;BME280;57902;49.638;11.070;2023-03-15T11:46:03;98368.09;;;3.09;100.00
70445;BME280;57902;49.638;11.070;2023-03-15T11:48:41;98372.31;;;2.92;100.00
70445;BME280;57902;49.638;11.070;2023-03-15T11:51:11;98370.66;;;3.03;100.00
70445;BME280;57902;49.638;11.070;2023-03-15T11:53:44;98367.25;;;3.04;100.00
70445;BME280;57902;49.638;11.070;2023-03-15T11:56:25;98371.50;;;3.07;100.00
70445;BME280;57902;49.638;11.070;2023-03-15T12:01:33;98370.66;;;3.06;100.00
70445;BME280;57902;49.638;11.070;2023-03-15T12:06:55;98368.09;;;3.00;100.00
70445;BME280;57902;49.638;11.070;2023-03-15T12:11:59;98365.53;;;2.94;100.00
70445;BME280;57902;49.638;11.070;2023-03-15T12:14:29;98372.34;;;3.00;100.00
70445;BME280;57902;49.638;11.070;2023-03-15T12:22:46;98363.88;;;3.30;100.00
70445;BME280;57902;49.638;11.070;2023-03-15T12:25:19;98374.94;;;3.33;100.00
70445;BME280;57902;49.638;11.070;2023-03-15T12:27:51;98376.66;;;3.39;100.00
70445;BME280;57902;49.638;11.070;2023-03-15T12:30:39;98378.34;;;3.29;100.00
70445;BME280;57902;49.638;11.070;2023-03-15T12:33:17;98374.06;;;3.30;100.00
70445;BME280;57902;49.638;11.070;2023-03-15T12:35:45;98372.41;;;3.35;98.52
70445;BME280;57902;49.638;11.070;2023-03-15T12:38:21;98366.44;;;3.27;100.00
70445;BME280;57902;49.638;11.070;2023-03-15T12:40:56;98372.38;;;3.20;100.00
70445;BME280;57902;49.638;11.070;2023-03-15T12:43:41;98374.06;;;3.24;100.00
70445;BME280;57902;49.638;11.070;2023-03-15T12:49:11;98377.50;;;3.38;100.00
70445;BME280;57902;49.638;11.070;2023-03-15T12:51:44;98371.53;;;3.38;99.19
70445;BME280;57902;49.638;11.070;2023-03-15T12:54:19;98380.03;;;3.52;97.84
70445;BME280;57902;49.638;11.070;2023-03-15T12:56:55;98377.50;;;3.38;100.00
70445;BME280;57902;49.638;11.070;2023-03-15T13:02:25;98379.19;;;3.42;100.00
70445;BME280;57902;49.638;11.070;2023-03-15T13:07:50;98381.75;;;3.47;95.65
70445;BME280;57902;49.638;11.070;2023-03-15T13:10:37;98382.59;;;3.43;96.51
70445;BME280;57902;49.638;11.070;2023-03-15T13:16:23;98384.28;;;3.22;98.10
70445;BME280;57902;49.638;11.070;2023-03-15T13:19:26;98382.56;;;3.12;99.84
70445;BME280;57902;49.638;11.070;2023-03-15T13:22:04;98385.94;;;3.17;98.47
70445;BME280;57902;49.638;11.070;2023-03-15T13:24:40;98385.09;;;3.20;98.93
70445;BME280;57902;49.638;11.070;2023-03-15T13:33:17;98384.28;;;3.36;100.00
70445;BME280;57902;49.638;11.070;2023-03-15T13:35:47;98382.59;;;3.55;99.41
70445;BME280;57902;49.638;11.070;2023-03-15T13:38:28;98379.19;;;3.72;98.63
70445;BME280;57902;49.638;11.070;2023-03-15T13:40:58;98385.13;;;3.77;98.94
70445;BME280;57902;49.638;11.070;2023-03-15T13:43:26;98383.44;;;3.70;98.51
70445;BME280;57902;49.638;11.070;2023-03-15T13:45:56;98386.84;;;3.72;96.95
70445;BME280;57902;49.638;11.070;2023-03-15T13:48:31;98389.38;;;3.79;95.95
70445;BME280;57902;49.638;11.070;2023-03-15T13:51:03;98386.84;;;3.84;96.31
70445;BME280;57902;49.638;11.070;2023-03-15T13:53:33;98391.94;;;3.99;93.96
70445;BME280;57902;49.638;11.070;2023-03-15T13:56:24;98385.09;;;4.05;95.65